Time;durP1;ratioP1;P1;durP2;ratioP2;P2;SDS_P1;SDS_P2;PMS_P1;PMS_P2;Temp;Humidity;BMP_temperature;BMP_pressure;BME280_temperature;BME280_humidity;BME280_pressure;Samples;Min_cycle;Max_cycle;Signal;HPM_P1;HPM_P2
2023/10/06 00:01:47;;;;;;;17.50;9.20;;;;;;;11.95;100.00;101444.23;107514;1241;62712;-78
2023/10/06 00:04:18;;;;;;;14.70;8.20;;;;;;;11.94;100.00;101447.98;107527;1245;61476;-80
2023/10/06 00:06:48;;;;;;;23.60;9.10;;;;;;;11.91;100.00;101443.79;107619;1245;59199;-82
2023/10/06 00:09:28;;;;;;;19.40;8.50;;;;;;;11.88;100.00;101446.61;107550;1244;63017;-82
2023/10/06 00:11:59;;;;;;;19.60;9.20;;;;;;;11.89;100.00;101453.38;107467;1244;61910;-81
2023/10/06 00:14:40;;;;;;;17.70;8.70;;;;;;;11.90;100.00;101458.02;107532;1251;59352;-82
2023/10/06 00:17:21;;;;;;;19.10;8.10;;;;;;;11.89;100.00;101459.63;107591;1244;62869;-82
2023/10/06 00:19:51;;;;;;;16.60;8.60;;;;;;;11.86;100.00;101461.79;107560;1241;72198;-84
2023/10/06 00:22:21;;;;;;;16.70;8.40;;;;;;;11.81;100.00;101460.16;107543;1244;69612;-84
2023/10/06 00:24:59;;;;;;;16.70;8.00;;;;;;;11.76;100.00;101468.38;107543;1244;64393;-87
2023/10/06 00:27:31;;;;;;;16.00;8.80;;;;;;;11.71;100.00;101468.00;107618;1244;62200;-87
2023/10/06 00:30:11;;;;;;;20.30;8.70;;;;;;;11.68;100.00;101473.58;107524;1251;61118;-81
2023/10/06 00:32:42;;;;;;;21.30;8.80;;;;;;;11.67;100.00;101474.81;107589;1241;63281;-82
2023/10/06 00:35:29;;;;;;;22.00;8.70;;;;;;;11.68;100.00;101478.80;107481;1244;71339;-81
2023/10/06 00:38:12;;;;;;;16.40;8.00;;;;;;;11.67;100.00;101477.13;107503;1245;71471;-83
2023/10/06 00:40:46;;;;;;;16.80;7.00;;;;;;;11.70;100.00;101477.14;107467;1241;73665;-80
2023/10/06 00:43:16;;;;;;;17.90;8.20;;;;;;;11.75;100.00;101481.50;107275;1245;59060;-81
2023/10/06 00:45:47;;;;;;;15.10;7.70;;;;;;;11.80;100.00;101484.14;107436;1244;59221;-82
2023/10/06 00:48:16;;;;;;;19.30;8.00;;;;;;;11.82;100.00;101479.83;107342;1241;73401;-80
2023/10/06 00:50:45;;;;;;;13.00;8.30;;;;;;;11.80;100.00;101474.23;107226;1241;63646;-80
2023/10/06 00:53:16;;;;;;;16.50;8.30;;;;;;;11.77;100.00;101479.79;107271;1241;71478;-81
2023/10/06 00:55:45;;;;;;;15.40;7.80;;;;;;;11.71;100.00;101489.10;107300;1251;74023;-82
2023/10/06 00:58:16;;;;;;;19.10;7.70;;;;;;;11.68;100.00;101494.54;107211;1245;63359;-85
2023/10/06 01:00:45;;;;;;;17.80;8.10;;;;;;;11.65;100.00;101495.59;107282;1241;59017;-84
2023/10/06 01:03:14;;;;;;;12.60;7.20;;;;;;;11.66;100.00;101497.77;107403;1241;62675;-79
2023/10/06 01:05:45;;;;;;;19.10;8.00;;;;;;;11.72;100.00;101499.69;107408;1245;73216;-79
2023/10/06 01:08:15;;;;;;;15.60;7.80;;;;;;;11.72;100.00;101501.08;107384;1244;60139;-83
2023/10/06 01:10:51;;;;;;;12.10;7.60;;;;;;;11.73;100.00;101505.20;107293;1254;73552;-83
2023/10/06 01:13:22;;;;;;;18.00;7.50;;;;;;;11.72;100.00;101509.40;107341;1243;58902;-82
2023/10/06 01:15:56;;;;;;;18.90;7.40;;;;;;;11.72;100.00;101508.90;107444;1244;59051;-82
2023/10/06 01:18:27;;;;;;;14.90;7.40;;;;;;;11.73;100.00;101506.23;107509;1246;62201;-82
2023/10/06 01:20:56;;;;;;;17.60;7.40;;;;;;;11.70;100.00;101512.21;107424;1251;70300;-80
2023/10/06 01:23:27;;;;;;;14.60;7.10;;;;;;;11.64;100.00;101514.29;107441;1242;69447;-80
2023/10/06 01:25:59;;;;;;;16.10;6.90;;;;;;;11.60;100.00;101513.67;107409;1251;73998;-82
2023/10/06 01:28:33;;;;;;;20.10;7.70;;;;;;;11.58;100.00;101528.30;107513;1241;62562;-85
2023/10/06 01:31:04;;;;;;;16.20;7.60;;;;;;;11.51;100.00;101532.27;107515;1249;59067;-85
2023/10/06 01:33:34;;;;;;;18.30;7.10;;;;;;;11.42;100.00;101526.70;107532;1244;73431;-84
2023/10/06 01:36:13;;;;;;;17.10;8.10;;;;;;;11.42;100.00;101522.14;107573;1246;71991;-83
2023/10/06 01:38:45;;;;;;;16.60;7.90;;;;;;;11.39;100.00;101525.11;107585;1245;60299;-85
2023/10/06 01:41:14;;;;;;;20.30;7.90;;;;;;;11.37;100.00;101535.00;107519;1245;72834;-85
2023/10/06 01:43:44;;;;;;;16.20;8.00;;;;;;;11.36;100.00;101535.30;107501;1245;59012;-84
2023/10/06 01:46:13;;;;;;;17.40;8.20;;;;;;;11.33;100.00;101531.12;107492;1254;61348;-84
2023/10/06 01:48:42;;;;;;;13.80;8.00;;;;;;;11.29;100.00;101537.98;107625;1241;74148;-79
2023/10/06 01:51:15;;;;;;;14.30;7.60;;;;;;;11.23;100.00;101540.27;109477;1241;72224;-79
2023/10/06 01:53:44;;;;;;;15.50;8.00;;;;;;;11.16;100.00;101540.70;109487;1244;59808;-80
2023/10/06 01:56:21;;;;;;;18.50;7.80;;;;;;;11.12;100.00;101542.85;109509;1241;71923;-79
2023/10/06 01:58:52;;;;;;;15.60;7.50;;;;;;;11.05;100.00;101538.75;109261;1241;62991;-79
2023/10/06 02:01:23;;;;;;;13.80;7.20;;;;;;;10.96;100.00;101542.44;108944;1245;61243;-78
2023/10/06 02:03:52;;;;;;;17.70;8.40;;;;;;;10.93;100.00;101552.90;108173;1243;62858;-80
2023/10/06 02:06:21;;;;;;;16.10;7.70;;;;;;;10.87;100.00;101557.83;107593;1245;61727;-88
2023/10/06 02:08:52;;;;;;;17.60;7.60;;;;;;;10.80;100.00;101558.55;107574;1247;59474;-89
2023/10/06 02:11:23;;;;;;;18.00;7.60;;;;;;;10.74;100.00;101567.12;107423;1241;64229;-88
2023/10/06 02:13:52;;;;;;;15.60;7.40;;;;;;;10.64;100.00;101577.13;107401;1253;62583;-86
2023/10/06 02:16:26;;;;;;;13.30;7.70;;;;;;;10.56;100.00;101581.41;107524;1242;60737;-87
2023/10/06 02:18:55;;;;;;;14.70;7.10;;;;;;;10.54;100.00;101577.16;107584;1241;72661;-87
2023/10/06 02:21:24;;;;;;;16.10;7.10;;;;;;;10.53;100.00;101578.96;107483;1241;62054;-87
2023/10/06 02:23:53;;;;;;;17.10;8.50;;;;;;;10.52;100.00;101578.52;107437;1244;60964;-86
2023/10/06 02:26:23;;;;;;;16.30;7.80;;;;;;;10.53;100.00;101579.34;107480;1254;63508;-86
2023/10/06 02:28:54;;;;;;;18.60;6.80;;;;;;;10.54;100.00;101587.10;107498;1244;57880;-86
2023/10/06 02:31:23;;;;;;;17.40;8.40;;;;;;;10.53;100.00;101595.73;107499;1244;58697;-86
2023/10/06 02:33:53;;;;;;;16.80;7.60;;;;;;;10.50;100.00;101593.79;107619;1251;73273;-87
2023/10/06 02:36:22;;;;;;;14.20;8.00;;;;;;;10.50;100.00;101591.91;107758;1255;61860;-85
2023/10/06 02:38:52;;;;;;;15.60;7.90;;;;;;;10.51;100.00;101595.67;107568;1246;59291;-84
2023/10/06 02:41:29;;;;;;;15.20;7.30;;;;;;;10.55;100.00;101594.04;107407;1245;72703;-83
2023/10/06 02:44:08;;;;;;;15.80;7.00;;;;;;;10.59;100.00;101592.35;107506;1245;61399;-86
2023/10/06 02:46:39;;;;;;;14.20;7.20;;;;;;;10.63;100.00;101591.29;107520;1244;58650;-84
2023/10/06 02:49:09;;;;;;;13.20;6.70;;;;;;;10.64;100.00;101580.97;107455;1241;73900;-84
2023/10/06 02:51:48;;;;;;;12.30;6.80;;;;;;;10.63;100.00;101580.85;107479;1241;71648;-82
2023/10/06 02:56:46;;;;;;;16.70;8.40;;;;;;;10.54;100.00;101587.83;107182;1243;72495;-83
2023/10/06 02:59:24;;;;;;;17.30;8.50;;;;;;;10.52;100.00;101591.42;107387;1245;63203;-85
2023/10/06 03:02:17;;;;;;;18.20;8.10;;;;;;;10.48;100.00;101588.70;107446;1245;61056;-88
2023/10/06 03:04:49;;;;;;;15.00;8.30;;;;;;;10.41;100.00;101594.34;107394;1247;65128;-83
2023/10/06 03:07:19;;;;;;;14.40;7.70;;;;;;;10.36;100.00;101598.40;107158;1246;72476;-82
2023/10/06 03:09:48;;;;;;;14.60;7.80;;;;;;;10.28;100.00;101589.79;107220;1243;70008;-83
2023/10/06 03:14:54;;;;;;;15.00;7.60;;;;;;;10.23;100.00;101599.30;107485;1241;63180;-81
2023/10/06 03:17:23;;;;;;;13.70;7.20;;;;;;;10.16;100.00;101597.98;107292;1252;60568;-80
2023/10/06 03:20:10;;;;;;;14.00;7.20;;;;;;;10.04;100.00;101602.13;107341;1244;61972;-81
2023/10/06 03:22:40;;;;;;;16.70;7.80;;;;;;;9.90;100.00;101603.45;107513;1241;72723;-82
2023/10/06 03:25:17;;;;;;;15.90;7.60;;;;;;;9.81;100.00;101605.27;107383;1254;69929;-81
2023/10/06 03:27:53;;;;;;;17.20;8.50;;;;;;;9.76;100.00;101602.95;107452;1246;63542;-83
2023/10/06 03:30:34;;;;;;;19.50;10.30;;;;;;;9.75;100.00;101601.29;107419;1243;59135;-84
2023/10/06 03:33:04;;;;;;;19.70;11.20;;;;;;;9.70;100.00;101601.21;107388;1245;59161;-84
2023/10/06 03:35:45;;;;;;;20.30;8.50;;;;;;;9.63;100.00;101598.29;107356;1244;63114;-84
2023/10/06 03:46:15;;;;;;;16.80;8.20;;;;;;;9.35;100.00;101607.11;107226;1254;58886;-86
2023/10/06 03:48:51;;;;;;;16.40;8.70;;;;;;;9.27;100.00;101612.20;107446;1243;59045;-85
2023/10/06 03:51:21;;;;;;;18.80;9.70;;;;;;;9.21;100.00;101608.89;107529;1241;72663;-87
2023/10/06 03:53:49;;;;;;;20.60;10.90;;;;;;;9.15;100.00;101608.51;107830;1245;72233;-81
2023/10/06 03:56:19;;;;;;;19.90;12.50;;;;;;;9.10;100.00;101609.46;107548;1242;61885;-84
2023/10/06 03:58:48;;;;;;;19.10;10.10;;;;;;;9.01;100.00;101613.36;107659;1241;73907;-85
2023/10/06 04:01:26;;;;;;;16.80;8.80;;;;;;;8.94;100.00;101623.33;107973;1245;62478;-86
2023/10/06 04:03:58;;;;;;;18.90;9.00;;;;;;;8.85;100.00;101619.96;107737;1252;59098;-86
2023/10/06 04:06:27;;;;;;;22.20;8.80;;;;;;;8.80;100.00;101621.77;107678;1243;63756;-77
2023/10/06 04:08:57;;;;;;;20.80;9.20;;;;;;;8.76;100.00;101627.35;107544;1244;60640;-82
2023/10/06 04:11:33;;;;;;;17.60;8.90;;;;;;;8.69;100.00;101630.13;107643;1251;59125;-77
2023/10/06 04:14:02;;;;;;;12.90;7.80;;;;;;;8.65;100.00;101633.98;107480;1252;73568;-77
2023/10/06 04:16:45;;;;;;;17.40;8.80;;;;;;;8.62;100.00;101637.41;107643;1251;62339;-80
2023/10/06 04:19:17;;;;;;;20.30;9.10;;;;;;;8.60;100.00;101638.73;107425;1241;61410;-79
2023/10/06 04:21:48;;;;;;;22.20;9.20;;;;;;;8.58;100.00;101642.48;107468;1254;63009;-81
2023/10/06 04:24:18;;;;;;;17.20;8.70;;;;;;;8.56;100.00;101646.92;107277;1254;61464;-77
2023/10/06 04:26:47;;;;;;;15.90;9.00;;;;;;;8.56;100.00;101647.27;107210;1242;70353;-78
2023/10/06 04:29:18;;;;;;;27.90;8.70;;;;;;;8.58;100.00;101649.57;107230;1245;64493;-74
2023/10/06 04:31:47;;;;;;;21.40;9.60;;;;;;;8.60;100.00;101656.63;107406;1242;59115;-78
2023/10/06 04:34:16;;;;;;;19.60;9.80;;;;;;;8.62;100.00;101661.05;107475;1241;61050;-72
2023/10/06 04:36:48;;;;;;;20.00;10.20;;;;;;;8.66;100.00;101665.18;107483;1241;73005;-77
2023/10/06 04:39:19;;;;;;;23.30;9.40;;;;;;;8.78;100.00;101664.96;107253;1244;61554;-73
2023/10/06 04:41:49;;;;;;;18.60;10.20;;;;;;;8.79;100.00;101670.63;107353;1241;70215;-75
2023/10/06 04:44:18;;;;;;;21.60;9.30;;;;;;;8.81;100.00;101670.70;107443;1246;73174;-74
2023/10/06 04:46:47;;;;;;;25.40;9.70;;;;;;;8.87;100.00;101670.55;107299;1241;62681;-76
2023/10/06 04:49:16;;;;;;;21.50;10.50;;;;;;;8.93;100.00;101677.77;107442;1243;60072;-77
2023/10/06 04:51:45;;;;;;;24.70;10.40;;;;;;;8.95;100.00;101679.71;107441;1244;73738;-78
2023/10/06 04:54:17;;;;;;;22.70;9.80;;;;;;;9.00;100.00;101678.95;107402;1241;68891;-75
2023/10/06 04:56:48;;;;;;;21.00;9.00;;;;;;;9.06;100.00;101675.36;107460;1245;59512;-75
2023/10/06 04:59:17;;;;;;;20.70;9.50;;;;;;;9.16;100.00;101673.09;107532;1241;73764;-75
2023/10/06 05:01:46;;;;;;;24.00;11.30;;;;;;;9.29;100.00;101673.14;107481;1243;62609;-75
2023/10/06 05:04:15;;;;;;;23.90;10.20;;;;;;;9.41;100.00;101680.15;107550;1254;57382;-77
2023/10/06 05:06:44;;;;;;;26.90;11.70;;;;;;;9.52;100.00;101679.38;107320;1255;63289;-77
2023/10/06 05:09:17;;;;;;;36.80;11.10;;;;;;;9.63;100.00;101685.27;107363;1241;61877;-76
2023/10/06 05:11:46;;;;;;;28.50;11.00;;;;;;;9.72;100.00;101684.61;107293;1245;69494;-74
2023/10/06 05:14:16;;;;;;;33.10;10.90;;;;;;;9.80;100.00;101687.86;107406;1241;74111;-78
2023/10/06 05:16:45;;;;;;;36.50;12.70;;;;;;;9.90;100.00;101690.60;107381;1244;64644;-77
2023/10/06 05:19:14;;;;;;;28.30;9.60;;;;;;;10.01;100.00;101692.80;107349;1241;61421;-76
2023/10/06 05:21:44;;;;;;;25.10;11.00;;;;;;;10.12;100.00;101698.08;107323;1245;74243;-76
2023/10/06 05:24:13;;;;;;;32.40;10.90;;;;;;;10.26;100.00;101704.70;108278;1244;73434;-78
2023/10/06 05:26:43;;;;;;;40.70;13.50;;;;;;;10.42;100.00;101707.13;107333;1244;70050;-77
2023/10/06 05:29:14;;;;;;;41.00;14.60;;;;;;;10.57;100.00;101709.75;107368;1255;63557;-76
2023/10/06 05:31:43;;;;;;;36.00;15.10;;;;;;;10.76;100.00;101709.84;107838;1242;58938;-77
2023/10/06 05:34:17;;;;;;;35.10;13.60;;;;;;;10.95;100.00;101709.13;107436;1246;58906;-76
2023/10/06 05:36:46;;;;;;;35.10;15.10;;;;;;;11.10;100.00;101713.98;107370;1245;62496;-77
2023/10/06 05:39:17;;;;;;;39.30;15.60;;;;;;;11.30;100.00;101715.62;107424;1245;61229;-76
2023/10/06 05:41:47;;;;;;;44.40;16.20;;;;;;;11.51;100.00;101717.14;107260;1245;60625;-77
2023/10/06 05:44:16;;;;;;;38.60;15.10;;;;;;;11.69;100.00;101720.58;107267;1244;62530;-78
2023/10/06 05:46:45;;;;;;;33.90;14.40;;;;;;;11.92;100.00;101723.38;107249;1255;57667;-76
2023/10/06 05:49:14;;;;;;;31.70;14.20;;;;;;;12.20;100.00;101724.63;107196;1241;59057;-78
2023/10/06 05:51:43;;;;;;;36.10;13.30;;;;;;;12.45;100.00;101725.08;107251;1255;63938;-78
2023/10/06 05:54:21;;;;;;;22.70;11.10;;;;;;;12.71;100.00;101728.66;107291;1245;71999;-79
2023/10/06 05:56:53;;;;;;;26.50;11.30;;;;;;;12.93;100.00;101734.21;107282;1255;60716;-80
2023/10/06 05:59:23;;;;;;;27.70;10.70;;;;;;;13.20;100.00;101731.39;107388;1249;73383;-79
2023/10/06 06:02:00;;;;;;;21.20;10.40;;;;;;;13.43;100.00;101735.07;107210;1244;63578;-80
2023/10/06 06:04:34;;;;;;;19.60;9.10;;;;;;;13.67;100.00;101736.09;107295;1244;59106;-78
2023/10/06 06:07:04;;;;;;;22.10;9.70;;;;;;;13.88;100.00;101739.54;107245;1245;62788;-82
2023/10/06 06:09:33;;;;;;;21.20;9.20;;;;;;;14.02;100.00;101744.66;107354;1251;70400;-82
2023/10/06 06:12:02;;;;;;;22.90;9.90;;;;;;;14.15;100.00;101746.85;107529;1246;59022;-81
2023/10/06 06:14:33;;;;;;;26.30;9.70;;;;;;;14.26;100.00;101748.03;107508;1245;63245;-78
2023/10/06 06:17:02;;;;;;;19.80;9.40;;;;;;;14.34;100.00;101750.08;107386;1245;58826;-80
2023/10/06 06:19:32;;;;;;;18.80;8.80;;;;;;;14.45;100.00;101759.10;107378;1244;59242;-82
2023/10/06 06:22:05;;;;;;;21.40;8.10;;;;;;;14.57;100.00;101761.04;107211;1241;72629;-79
2023/10/06 06:24:37;;;;;;;20.30;7.80;;;;;;;14.63;100.00;101759.23;107313;1244;71963;-78
2023/10/06 06:27:09;;;;;;;14.70;7.50;;;;;;;14.65;100.00;101755.73;107303;1244;69212;-81
2023/10/06 06:29:38;;;;;;;19.20;8.00;;;;;;;14.64;100.00;101754.27;107237;1245;73432;-80
2023/10/06 06:32:11;;;;;;;16.60;7.80;;;;;;;14.58;100.00;101754.17;107271;1242;60722;-80
2023/10/06 06:34:41;;;;;;;14.60;7.20;;;;;;;14.52;100.00;101755.27;107238;1244;60013;-80
2023/10/06 06:37:12;;;;;;;15.60;8.20;;;;;;;14.55;100.00;101752.81;107304;1255;74636;-82
2023/10/06 06:39:44;;;;;;;18.50;8.30;;;;;;;14.51;100.00;101755.67;107246;1241;72345;-82
2023/10/06 06:42:14;;;;;;;15.30;7.00;;;;;;;14.55;100.00;101753.51;107412;1255;59684;-78
2023/10/06 06:44:47;;;;;;;19.40;8.50;;;;;;;14.69;100.00;101756.73;107531;1245;73531;-80
2023/10/06 06:47:17;;;;;;;16.40;8.20;;;;;;;14.82;100.00;101755.20;107374;1244;60758;-79
2023/10/06 06:49:48;;;;;;;19.30;7.00;;;;;;;14.93;100.00;101760.00;107230;1245;58998;-79
2023/10/06 06:52:21;;;;;;;16.50;6.90;;;;;;;15.02;100.00;101754.79;107228;1255;62007;-79
2023/10/06 06:54:51;;;;;;;14.60;6.70;;;;;;;15.08;100.00;101751.70;106962;1248;71118;-79
2023/10/06 06:57:21;;;;;;;15.30;6.80;;;;;;;15.17;100.00;101750.89;107266;1255;70011;-79
2023/10/06 06:59:50;;;;;;;14.00;6.70;;;;;;;15.20;100.00;101750.83;107335;1245;73294;-81
2023/10/06 07:02:20;;;;;;;13.30;5.90;;;;;;;15.29;100.00;101757.13;107546;1244;58957;-81
2023/10/06 07:04:49;;;;;;;15.40;6.80;;;;;;;15.39;100.00;101758.31;107173;1244;398972;-81
2023/10/06 07:07:18;;;;;;;14.80;5.40;;;;;;;15.48;100.00;101757.64;107294;1255;62438;-80
2023/10/06 07:09:47;;;;;;;12.70;6.50;;;;;;;15.57;100.00;101752.48;107276;1246;62314;-80
2023/10/06 07:12:16;;;;;;;17.30;6.90;;;;;;;15.64;100.00;101747.05;107330;1247;59471;-81
2023/10/06 07:14:47;;;;;;;16.30;6.40;;;;;;;15.69;100.00;101747.98;107203;1246;63048;-80
2023/10/06 07:17:16;;;;;;;12.40;5.90;;;;;;;15.72;100.00;101756.50;107345;1241;60621;-80
2023/10/06 07:19:45;;;;;;;18.00;5.80;;;;;;;15.77;100.00;101758.00;107217;1248;59098;-82
2023/10/06 07:22:15;;;;;;;12.90;6.10;;;;;;;15.81;100.00;101758.60;107307;1246;73437;-79
2023/10/06 07:24:44;;;;;;;10.70;4.70;;;;;;;15.89;100.00;101752.84;107309;1255;72663;-80
2023/10/06 07:27:13;;;;;;;13.80;6.10;;;;;;;15.96;100.00;101754.48;107460;1244;59600;-80
2023/10/06 07:29:43;;;;;;;12.40;5.70;;;;;;;15.99;100.00;101755.27;107401;1245;62764;-82
2023/10/06 07:32:13;;;;;;;14.60;5.40;;;;;;;16.04;100.00;101760.65;107467;1244;60417;-80
2023/10/06 07:34:43;;;;;;;13.60;6.00;;;;;;;16.06;100.00;101757.16;107520;1244;61518;-82
2023/10/06 07:37:12;;;;;;;13.10;5.70;;;;;;;16.11;100.00;101762.24;107422;1241;73890;-80
2023/10/06 07:39:40;;;;;;;10.50;5.30;;;;;;;16.14;100.00;101763.53;107418;1251;72285;-81
2023/10/06 07:42:13;;;;;;;13.70;5.40;;;;;;;16.18;100.00;101759.77;107438;1244;70728;-78
2023/10/06 07:44:43;;;;;;;13.30;6.00;;;;;;;16.24;100.00;101765.78;107439;1246;72335;-80
2023/10/06 07:47:12;;;;;;;11.90;5.50;;;;;;;16.30;100.00;101772.29;107333;1242;62018;-78
2023/10/06 07:49:41;;;;;;;12.00;5.60;;;;;;;16.37;100.00;101766.46;107433;1244;59092;-79
2023/10/06 07:52:11;;;;;;;13.40;5.80;;;;;;;16.46;100.00;101766.33;107499;1244;62745;-80
2023/10/06 07:54:42;;;;;;;12.30;5.50;;;;;;;16.54;100.00;101769.86;107430;1245;61673;-79
2023/10/06 07:57:12;;;;;;;11.70;5.60;;;;;;;16.61;100.00;101767.68;107428;1251;59488;-80
2023/10/06 07:59:41;;;;;;;10.10;5.30;;;;;;;16.69;100.00;101776.36;107399;1241;74826;-77
2023/10/06 08:02:12;;;;;;;14.60;5.60;;;;;;;16.72;100.00;101770.67;107366;1245;61294;-78
2023/10/06 08:04:42;;;;;;;8.70;5.10;;;;;;;16.68;100.00;101773.09;107419;1241;59306;-80
2023/10/06 08:07:10;;;;;;;10.30;4.70;;;;;;;16.77;100.00;101776.77;107443;1241;73541;-80
2023/10/06 08:09:39;;;;;;;11.30;4.70;;;;;;;16.82;100.00;101776.52;107370;1242;72192;-78
2023/10/06 08:12:08;;;;;;;14.20;5.50;;;;;;;16.88;100.00;101768.88;107428;1245;69442;-79
2023/10/06 08:14:39;;;;;;;10.10;5.00;;;;;;;16.91;100.00;101769.66;107418;1247;74167;-79
2023/10/06 08:17:09;;;;;;;13.10;5.10;;;;;;;17.00;100.00;101773.70;107155;1241;58494;-79
2023/10/06 08:19:38;;;;;;;12.90;5.10;;;;;;;17.22;100.00;101770.44;107355;1252;60129;-79
2023/10/06 08:22:07;;;;;;;9.30;4.90;;;;;;;17.26;100.00;101772.17;107244;1245;73115;-81
2023/10/06 08:24:36;;;;;;;11.70;5.60;;;;;;;17.27;100.00;101770.70;107184;1241;63475;-79
2023/10/06 08:27:07;;;;;;;12.10;4.90;;;;;;;17.38;100.00;101777.37;107209;1245;60436;-79
2023/10/06 08:29:36;;;;;;;10.00;4.40;;;;;;;17.55;100.00;101773.13;107211;1242;72949;-78
2023/10/06 08:32:06;;;;;;;8.90;4.90;;;;;;;17.66;99.85;101776.89;107303;1253;61767;-79
2023/10/06 08:34:39;;;;;;;8.60;3.80;;;;;;;17.71;98.77;101777.20;107350;1242;58982;-78
2023/10/06 08:37:11;;;;;;;;;;;;;;;17.76;97.53;101775.56;107343;1245;62077;-79
2023/10/06 08:39:40;;;;;;;14.50;4.20;;;;;;;17.57;97.80;101774.50;107263;1241;71352;-78
2023/10/06 08:42:17;;;;;;;9.90;4.40;;;;;;;17.77;97.02;101780.92;107122;1244;70730;-79
2023/10/06 08:44:46;;;;;;;10.10;4.80;;;;;;;17.76;96.70;101778.39;107370;1251;73429;-79
2023/10/06 08:47:18;;;;;;;8.30;3.90;;;;;;;17.86;96.29;101782.77;107351;1245;58193;-80
2023/10/06 08:50:00;;;;;;;11.00;4.10;;;;;;;17.95;95.67;101771.13;107389;1244;60897;-80
2023/10/06 08:52:32;;;;;;;12.00;3.90;;;;;;;17.94;94.87;101769.93;107310;1255;62898;-80
2023/10/06 08:55:02;;;;;;;13.00;4.10;;;;;;;17.89;94.86;101774.99;107172;1255;71114;-79
2023/10/06 08:57:31;;;;;;;8.40;4.20;;;;;;;18.05;94.65;101780.77;107080;1241;71979;-76
2023/10/06 09:00:00;;;;;;;13.80;3.90;;;;;;;18.10;93.47;101785.64;107279;1241;74519;-80
2023/10/06 09:02:31;;;;;;;9.50;3.70;;;;;;;18.18;92.88;101780.53;107173;1254;60495;-79
2023/10/06 09:05:00;;;;;;;9.50;3.60;;;;;;;18.16;93.36;101781.98;107241;1244;60006;-81
2023/10/06 09:07:29;;;;;;;11.40;3.80;;;;;;;18.23;92.66;101777.95;107323;1246;63370;-80
2023/10/06 09:09:59;;;;;;;7.60;3.80;;;;;;;18.30;92.64;101777.19;107385;1244;61779;-80
2023/10/06 09:12:31;;;;;;;8.20;3.70;;;;;;;18.33;92.38;101778.88;107327;1244;71354;-81
2023/10/06 09:15:00;;;;;;;7.70;3.80;;;;;;;18.17;92.67;101784.88;107518;1255;63137;-81
2023/10/06 09:17:35;;;;;;;10.40;3.60;;;;;;;18.30;92.35;101781.08;107723;1245;59038;-82
2023/10/06 09:20:07;;;;;;;9.80;3.90;;;;;;;18.39;90.98;101785.77;107598;1245;60092;-80
2023/10/06 09:22:56;;;;;;;10.80;3.50;;;;;;;18.39;90.95;101783.68;107595;1244;62593;-80
2023/10/06 09:25:27;;;;;;;8.70;3.10;;;;;;;18.52;89.90;101786.59;107471;1245;60638;-84
2023/10/06 09:28:08;;;;;;;11.60;3.40;;;;;;;18.55;88.99;101788.73;107561;1244;70413;-84
2023/10/06 09:31:00;;;;;;;7.50;3.10;;;;;;;18.62;88.68;101781.92;107547;1254;75547;-82
2023/10/06 09:33:35;;;;;;;9.10;3.50;;;;;;;18.67;88.02;101782.92;107688;1241;58950;-81
2023/10/06 09:36:07;;;;;;;7.20;3.10;;;;;;;18.72;87.15;101790.25;107808;1244;58992;-79
2023/10/06 09:38:41;;;;;;;5.30;2.80;;;;;;;18.72;87.26;101787.41;109046;1244;71871;-78
2023/10/06 09:41:11;;;;;;;8.20;3.10;;;;;;;18.77;87.88;101785.36;108740;1244;70435;-81
2023/10/06 09:43:41;;;;;;;11.50;3.40;;;;;;;18.82;88.30;101781.55;108915;1241;70382;-79
2023/10/06 09:46:13;;;;;;;7.20;2.90;;;;;;;18.82;87.67;101786.92;108924;1244;63143;-79
2023/10/06 09:48:43;;;;;;;5.80;2.40;;;;;;;18.94;86.46;101788.40;108323;1244;61585;-81
2023/10/06 09:51:14;;;;;;;7.20;3.00;;;;;;;19.04;85.02;101793.88;108251;1245;59029;-75
2023/10/06 09:53:44;;;;;;;5.40;2.80;;;;;;;19.03;83.61;101787.27;107493;1244;73145;-81
2023/10/06 09:56:17;;;;;;;4.70;2.20;;;;;;;18.67;84.11;101790.98;107369;1254;72487;-83
2023/10/06 09:58:48;;;;;;;11.20;2.50;;;;;;;18.62;83.54;101786.05;107412;1245;70151;-81
2023/10/06 10:01:22;;;;;;;6.90;2.90;;;;;;;18.51;83.79;101789.42;107894;1244;62645;-81
2023/10/06 10:03:54;;;;;;;7.80;2.80;;;;;;;18.60;83.61;101787.63;107357;1245;60466;-81
2023/10/06 10:06:23;;;;;;;10.20;2.30;;;;;;;18.61;82.82;101790.27;107499;1241;59069;-80
2023/10/06 10:08:52;;;;;;;8.60;2.60;;;;;;;18.47;83.21;101784.67;107506;1254;62115;-80
2023/10/06 10:11:33;;;;;;;7.50;3.10;;;;;;;18.57;83.44;101785.17;107335;1254;72428;-81
2023/10/06 10:14:49;;;;;;;7.30;3.00;;;;;;;18.68;82.07;101787.40;107419;1241;70955;-81
2023/10/06 10:17:48;;;;;;;5.40;2.40;;;;;;;18.59;82.32;101779.54;107204;1254;63830;-79
2023/10/06 10:20:18;;;;;;;9.40;3.00;;;;;;;18.66;81.94;101772.02;107439;1244;61102;-79
2023/10/06 10:22:52;;;;;;;7.40;2.60;;;;;;;18.54;82.41;101764.16;107602;1243;59016;-80
2023/10/06 10:25:23;;;;;;;8.10;2.90;;;;;;;18.53;81.65;101764.78;107467;1244;63009;-81
2023/10/06 10:28:19;;;;;;;7.20;2.30;;;;;;;18.73;81.37;101762.59;107416;1245;71352;-83
2023/10/06 10:31:00;;;;;;;6.60;2.30;;;;;;;18.96;78.91;101761.94;107634;1245;59441;-81
2023/10/06 10:33:37;;;;;;;5.90;2.40;;;;;;;19.08;77.21;101755.17;107641;1241;73040;-81
2023/10/06 10:36:18;;;;;;;5.80;2.10;;;;;;;19.34;76.52;101753.80;107516;1244;58977;-80
2023/10/06 10:39:22;;;;;;;8.40;2.10;;;;;;;19.83;75.28;101748.91;107520;1245;60158;-81
2023/10/06 10:41:58;;;;;;;4.30;2.20;;;;;;;20.05;72.25;101756.88;107354;1251;63464;-81
2023/10/06 10:44:27;;;;;;;5.90;1.60;;;;;;;20.26;70.23;101751.95;109729;1241;70654;-81
2023/10/06 10:47:02;;;;;;;6.40;2.00;;;;;;;20.27;68.69;101756.45;109745;1241;70709;-80
2023/10/06 10:49:33;;;;;;;6.10;1.90;;;;;;;20.41;68.25;101763.60;109744;1241;63296;-80
2023/10/06 10:52:07;;;;;;;3.70;1.70;;;;;;;20.42;67.11;101755.42;109792;1244;57110;-81
2023/10/06 10:54:45;;;;;;;4.80;1.70;;;;;;;20.36;67.03;101743.77;109809;1241;60954;-80
2023/10/06 10:57:21;;;;;;;4.80;1.90;;;;;;;20.39;66.01;101748.32;109736;1241;74238;-80
2023/10/06 11:02:51;;;;;;;4.90;1.90;;;;;;;19.83;66.37;101749.96;109825;1241;61052;-80
2023/10/06 11:05:22;;;;;;;5.70;1.50;;;;;;;19.40;68.24;101746.59;109717;1241;73548;-81
2023/10/06 11:08:02;;;;;;;5.30;1.50;;;;;;;19.26;69.50;101744.81;109748;1244;57672;-80
2023/10/06 11:10:33;;;;;;;5.70;1.50;;;;;;;19.18;70.12;101740.82;109585;1241;61835;-80
2023/10/06 11:13:19;;;;;;;6.30;2.50;;;;;;;19.10;71.04;101747.23;109856;1241;63525;-81
2023/10/06 11:15:49;;;;;;;5.80;1.70;;;;;;;18.85;71.76;101755.16;109731;1241;71384;-80
2023/10/06 11:18:19;;;;;;;7.50;1.70;;;;;;;19.44;69.61;101745.19;109838;1241;70538;-80
2023/10/06 11:20:48;;;;;;;4.70;1.70;;;;;;;19.85;66.42;101759.64;109786;1241;63595;-79
2023/10/06 11:23:20;;;;;;;5.60;1.90;;;;;;;19.94;64.96;101757.60;109744;1244;57672;-81
2023/10/06 11:25:50;;;;;;;5.10;1.60;;;;;;;19.94;65.56;101758.96;109859;1241;57587;-80
2023/10/06 11:28:19;;;;;;;5.00;1.70;;;;;;;20.00;64.84;101750.58;109759;1241;73460;-81
2023/10/06 11:30:50;;;;;;;4.80;1.70;;;;;;;19.99;65.22;101747.72;109854;1241;71164;-81
2023/10/06 11:33:20;;;;;;;4.20;2.00;;;;;;;19.97;65.47;101746.79;109779;1241;70139;-82
2023/10/06 11:35:54;;;;;;;6.50;1.60;;;;;;;19.94;65.21;101756.17;109846;1242;73431;-81
2023/10/06 11:38:23;;;;;;;9.10;2.10;;;;;;;19.77;66.06;101744.37;109715;1244;61519;-82
2023/10/06 11:40:53;;;;;;;6.90;2.30;;;;;;;19.55;67.72;101747.69;109845;1241;60870;-81
2023/10/06 11:43:22;;;;;;;7.90;2.30;;;;;;;19.58;67.52;101742.27;109614;1241;73067;-80
2023/10/06 11:46:07;;;;;;;4.50;1.70;;;;;;;19.57;67.54;101747.32;109806;1241;72203;-80